createdAt,value
2022-12-23T00:09:51.717Z,12.21
2022-12-23T00:19:59.936Z,11.42
2022-12-23T00:30:09.164Z,12.82
2022-12-23T00:40:17.287Z,13.83
2022-12-23T00:50:25.366Z,16.47
2022-12-23T01:00:33.338Z,11.98
2022-12-23T01:10:41.400Z,7.97
2022-12-23T01:20:49.737Z,7.46
2022-12-23T01:30:57.850Z,8.47
2022-12-23T01:41:06.365Z,8.28
2022-12-23T01:51:16.787Z,7.13
2022-12-23T02:01:24.903Z,8.08
2022-12-23T02:11:33.022Z,7.43
2022-12-23T02:21:41.070Z,8.05
2022-12-23T02:31:49.211Z,8
2022-12-23T02:41:57.224Z,8.94
2022-12-23T02:52:05.324Z,8.02
2022-12-23T03:02:13.479Z,8.84
2022-12-23T03:12:21.572Z,8.63
2022-12-23T03:22:29.573Z,12.5
2022-12-23T03:32:37.686Z,9.5
2022-12-23T03:42:45.931Z,7.19
2022-12-23T03:52:54.026Z,6.7
2022-12-23T04:03:03.414Z,6.68
2022-12-23T04:13:11.415Z,7.76
2022-12-23T04:23:19.619Z,7.83
2022-12-23T04:33:27.870Z,9.4
2022-12-23T04:43:36.005Z,8.8
2022-12-23T04:53:44.037Z,9.97
2022-12-23T05:03:52.224Z,9.86
2022-12-23T05:14:00.354Z,8.77
2022-12-23T05:24:08.790Z,9.03
2022-12-23T05:34:17.040Z,8.63
2022-12-23T05:44:25.166Z,9.21
2022-12-23T05:54:33.227Z,11.28
2022-12-23T06:04:41.335Z,8.24
2022-12-23T06:14:49.334Z,8.4
2022-12-23T06:24:57.454Z,9.74
2022-12-23T06:35:05.622Z,9.19
2022-12-23T06:45:13.749Z,9.16
2022-12-23T06:55:21.863Z,11.9
2022-12-23T07:05:36.630Z,12.56
2022-12-23T07:15:37.299Z,11.24
2022-12-23T07:25:45.499Z,13.23
2022-12-23T07:35:54.965Z,14.38
2022-12-23T07:46:02.166Z,20.08
2022-12-23T07:56:12.905Z,16.81
2022-12-23T08:06:11.956Z,16.62
2022-12-23T08:16:20.156Z,11.15
2022-12-23T08:26:29.583Z,16.13
2022-12-23T08:36:37.813Z,19.35
2022-12-23T08:46:46.103Z,20.22
2022-12-23T08:56:57.193Z,14.51
2022-12-23T09:06:57.556Z,15.33
2022-12-23T09:16:56.836Z,12.2
2022-12-23T09:27:05.162Z,6.54
2022-12-23T09:37:17.235Z,9.55
2022-12-23T09:47:15.888Z,5.42
2022-12-23T09:57:24.522Z,8.14
2022-12-23T10:07:36.334Z,11.72
2022-12-23T10:17:50.124Z,4.72
2022-12-23T10:27:47.122Z,3.84
2022-12-23T10:37:44.135Z,4.58
2022-12-23T10:47:55.939Z,5.41
2022-12-23T10:57:55.235Z,5.58
2022-12-23T11:08:03.414Z,5.06
2022-12-23T11:18:14.174Z,4.83
2022-12-23T11:28:17.276Z,7.14
2022-12-23T11:38:16.514Z,4.07
2022-12-23T11:48:16.730Z,2.96
2022-12-23T11:58:19.090Z,4.46
2022-12-23T12:08:27.481Z,4.37
2022-12-23T12:18:29.658Z,2.99
2022-12-23T12:28:42.502Z,3.8
2022-12-23T12:38:43.858Z,3.3
2022-12-23T12:48:51.927Z,4.46
2022-12-23T12:59:08.577Z,4.04
2022-12-23T13:09:14.105Z,8.44
2022-12-23T13:19:13.964Z,3.64
2022-12-23T13:29:24.339Z,4.24
2022-12-23T13:39:24.866Z,3.94
2022-12-23T13:49:25.384Z,6.58
2022-12-23T13:59:32.290Z,4.72
2022-12-23T14:09:40.388Z,7.16
2022-12-23T14:19:48.324Z,6.32
2022-12-23T14:29:59.947Z,10.6
2022-12-23T14:40:03.095Z,7.86
2022-12-23T14:50:11.024Z,4.68
2022-12-23T15:00:19.017Z,4.16
2022-12-23T15:10:26.841Z,3.3
2022-12-23T15:20:34.691Z,4.91
2022-12-23T15:30:42.999Z,2.95
2022-12-23T15:40:51.146Z,3.61
2022-12-23T15:50:59.058Z,2.92
2022-12-23T16:01:07.041Z,3.51
2022-12-23T16:11:15.330Z,4.64
2022-12-23T16:21:23.348Z,3.28
2022-12-23T16:31:31.415Z,3.78
2022-12-23T16:41:39.363Z,4.08
2022-12-23T16:51:47.583Z,2.55
2022-12-23T17:01:59.618Z,3.35
2022-12-23T17:12:02.101Z,3.29
2022-12-23T17:22:10.213Z,3.36
2022-12-23T17:32:20.282Z,3.69
2022-12-23T17:42:27.306Z,3.15
2022-12-23T17:52:35.488Z,3.71
2022-12-23T18:02:43.523Z,3.12
2022-12-23T18:12:52.616Z,4.75
2022-12-23T18:23:01.916Z,6.27
2022-12-23T18:33:01.153Z,5
2022-12-23T18:43:09.467Z,5.7
2022-12-23T18:53:23.302Z,5.62
2022-12-23T19:03:24.734Z,4.03
2022-12-23T19:13:33.993Z,6.93
2022-12-23T19:23:42.503Z,4.33
2022-12-23T19:33:52.814Z,4.99
2022-12-23T19:43:53.200Z,6.5
2022-12-23T19:53:54.385Z,6.27
2022-12-23T20:03:54.060Z,6.5
2022-12-23T20:14:03.896Z,6.16
2022-12-23T20:24:29.623Z,7.26
2022-12-23T20:34:25.187Z,4.6
2022-12-23T20:44:36.789Z,7.65
2022-12-23T20:54:33.058Z,7.01
2022-12-23T21:04:38.181Z,4.01
2022-12-23T21:14:40.811Z,6.65
2022-12-23T21:24:54.255Z,4.89
2022-12-23T21:35:02.930Z,7.82
2022-12-23T21:45:09.491Z,5.95
2022-12-23T21:55:10.472Z,5.08
2022-12-23T22:05:11.286Z,4.06
2022-12-23T22:15:16.430Z,4.4
2022-12-23T22:25:17.428Z,4.56
2022-12-23T22:35:15.639Z,3.3
2022-12-23T22:45:23.688Z,3.23
2022-12-23T22:55:31.791Z,2.99
2022-12-23T23:05:40.021Z,2.22
2022-12-23T23:15:48.300Z,2.86
2022-12-23T23:25:56.391Z,2.58
2022-12-23T23:36:04.710Z,2.06
2022-12-23T23:46:14.275Z,2.47
2022-12-23T23:56:25.267Z,2.07
